METAR Data
IDs: Format: Raw Decoded Include TAF

Data at: 1808 UTC 21 Sep 2018

KAFW 211753Z 17013KT 7SM -RA FEW020 BKN029 OVC075 27/24 A2994 RMK AO2 RAB1657E10B42 SLP126 P0000 60001 T02720239 10289 20244 58005 $
KAFW 211705Z 17014KT 10SM -RA SCT019 BKN040 OVC065 27/24 A2996 RMK AO2 RAB1657 P0000 T02720244 $
KAFW 211653Z 17013KT 10SM SCT019 BKN027 OVC041 27/24 A2996 RMK AO2 SLP133 T02670239 $
KAFW 211628Z 16012KT 10SM SCT017 BKN027 OVC060 27/24 A2997 RMK AO2 T02670239 $
KAFW 211553Z 16010KT 10SM SCT022 BKN035 BKN060 27/24 A2996 RMK AO2 RAE14B16E45 SLP133 P0001 T02670244 $
KAFW 211543Z 16011KT 10SM -RA SCT020 BKN028 OVC090 27/24 A2996 RMK AO2 RAE14B16 P0001 T02670244 $
KAFW 211515Z 16011KT 10SM SCT016 BKN055 OVC090 26/24 A2996 RMK AO2 RAE14 P0000 T02610239 $
KAFW 211453Z 17012KT 10SM -RA BKN016 BKN075 OVC100 26/24 A2996 RMK AO2 RAB46 SLP130 P0000 60000 T02610239 53009 $
KAFW 211353Z 17009KT 10SM BKN015 BKN110 26/23 A2995 RMK AO2 SLP127 T02610233 $
KAFW 211253Z 16010KT 10SM BKN015 BKN020 OVC110 25/23 A2993 RMK AO2 SLP123 T02500233 $
KAFW 211236Z 15008KT 10SM BKN014 BKN019 OVC110 25/23 A2993 RMK AO2 T02500233 $
KAFW 211153Z 17006KT 10SM BKN015 OVC120 24/23 A2993 RMK AO2 SLP123 60001 70021 T02440233 10250 20239 51001 $
KAFW 211148Z 17007KT 10SM OVC015 24/23 A2993 RMK AO2 $
KAFW 211053Z 17007KT 10SM OVC012 24/23 A2993 RMK AO2 RAB0957E24 SLP121 P0001 T02440228 $
KAFW 211000Z 17008KT 10SM -RA OVC013 24/23 A2992 RMK AO2 RAB0957 P0000 T02440228 $
KAFW 210953Z 17009KT 10SM OVC015 24/23 A2993 RMK AO2 RAB33E46 SLP117 P0000 T02440228 $
KAFW 210853Z 16011KT 10SM BKN015 BKN022 BKN085 24/22 A2992 RMK AO2 SLP116 T02440217 56004 $
KAFW 210831Z 16009KT 10SM SCT016 SCT050 BKN065 24/22 A2992 RMK AO2 T02440217 $
KAFW 210804Z 16009KT 10SM BKN018 OVC080 24/21 A2993 RMK AO2 T02440211 $
KAFW 210753Z 16007KT 10SM SCT019 OVC075 24/21 A2993 RMK AO2 SLP118 T02440211 $
KAFW 210736Z 17009KT 10SM SCT023 BKN046 OVC075 24/21 A2992 RMK AO2 T02440211 $
KAFW 210706Z 17010KT 10SM BKN023 OVC050 24/21 A2992 RMK AO2 T02390211 $
KAFW 210653Z 17010KT 10SM FEW024 OVC050 24/21 A2992 RMK AO2 SLP118 T02390211 $
KAFW 210553Z 18008KT 10SM BKN055 OVC110 24/21 A2993 RMK AO2 SLP121 60000 T02390206 10256 20239 403280239 58002 $
KAFW 210453Z 18007KT 10SM BKN110 BKN150 24/21 A2994 RMK AO2 SLP124 T02390206 $
KAFW 210353Z 19012KT 10SM FEW100 OVC150 24/21 A2995 RMK AO2 SLP128 T02440211 $
KAFW 210253Z 16012KT 10SM FEW039 BKN110 BKN140 BKN160 BKN300 26/21 A2994 RMK AO2 SLP124 60000 T02560211 51017 $
KAFW 210153Z 13007KT 10SM FEW110 BKN150 BKN180 25/22 A2993 RMK AO2 SLP120 T02500222 $
KAFW 210053Z 14007KT 10SM SCT043 BKN150 BKN200 25/23 A2991 RMK AO2 RAE11 SLP116 OCNL LTGIC DSNT NE AND E CB DSNT NE AND E MOV N P0000 T02500233 $
KAFW 202353Z 23005KT 9SM -RA FEW040 SCT110 OVC140 24/23 A2989 RMK AO2 LTG DSNT E AND SE TSE31 SLP109 CB DSNT E-SE AND NW MOV N P0020 60020 T02440228 10328 20239 50005 $
KAFW 202339Z 24005KT 10SM -RA FEW040 SCT110 OVC140 24/22 A2990 RMK AO2 LTG DSNT E AND SE TSE31 CB DSNT SE AND NW MOV N P0019 T02390217 $
KAFW 202331Z 25003KT 10SM VCTS -RA FEW032 FEW040CB BKN110 OVC140 24/21 A2990 RMK AO2 LTG DSNT SE TSE31 OCNL LTGICCG VC NW-N TS VC NW-N MOV N CB DSNT SE AND NW MOV N P0019 T02390211 $
KAFW 202314Z 26005KT 7SM R16L/5000VP6000FT -TSRA FEW032 BKN040CB BKN055 OVC140 24/22 A2990 RMK AO2 LTG DSNT SE AND S AND NW OCNL LTGICCG OHD-NW TS OHD-NW MOV N CB DSNT SE AND NW MOV N P0019 T02440217 $
KAFW 202259Z 20021G29KT 1 3/4SM R16L/5000VP6000FT +TSRA BR BKN040CB BKN230 BKN300 24/22 A2990 RMK AO2 TWR VIS 3 LTG DSNT SE AND NW OCNL LTGICCG OHD-SE-SW TS OHD-SE-SW MOV N CB DSNT SE AND W-NW MOV N P0007 T02440222 $
KAFW 202253Z 20022G29KT 10SM -TSRA BKN040CB BKN230 BKN300 27/21 A2990 RMK AO2 PK WND 19029/2253 LTG DSNT S-NW RAB45 TSB40 PRESRR SLP112 OCNL LTGICCG S-SW TS S-SW MOV N CB DSNT SE AND W-NW MOV N P0000 T02670211 $
KAFW 202248Z 20020G28KT 10SM -TSRA BKN040CB BKN230 BKN300 28/20 A2989 RMK AO2 PK WND 21028/2243 LTG DSNT S-NW RAB45 TSB40 PRESRR OCNL LTGICCG S-SW TS S-SW MOV N CB DSNT SE AND W-NW MOV N P0000 $
KAFW 202240Z 20017G25KT 10SM TS SCT040CB SCT200 BKN230 BKN270 29/20 A2988 RMK AO2 LTG DSNT S-NW TSB40 OCNL LTGICCG S-SW TS S-SW MOV N CB DSNT SE AND W-NW MOV N VCSH S-SW T02940200 $
KAFW 202153Z 15015G24KT 10SM FEW046 SCT180 SCT270 33/21 A2986 RMK AO2 LTG DSNT S AND SW SLP096 CB DSNT S-W MOV N TCU DSNT E T03280211
KAFW 202053Z 14013KT 10SM SCT041TCU SCT240 BKN270 32/22 A2987 RMK AO2 TSB19E44 SLP100 CB DSNT SE AND W MOV N TCU VCSH N T03220222 55017
KAFW 202048Z 14008KT 10SM SCT041TCU BKN240 BKN270 32/22 A2987 RMK AO2 TSB19E44 CB DSNT SE AND W MOV N TCU VCSH N
KAFW 202026Z 14007KT 10SM TS SCT045CB BKN240 BKN270 31/22 A2989 RMK AO2 TSB19 OCNL LTGIC OHD-SW TS OHD-SW MOV N T03060222
KAFW 201953Z 15012KT 10SM FEW045 SCT140 BKN250 32/22 A2990 RMK AO2 SLP109 T03220217
KAFW 201853Z 17010KT 10SM SCT041 BKN250 31/22 A2993 RMK AO2 SLP117 T03110217
KAFW 201753Z 18017KT 10SM SCT037 BKN250 31/21 A2994 RMK AO2 SLP124 T03110206 10317 20239 58006
KAFW 201653Z 17012G16KT 10SM FEW030 BKN200 BKN250 31/22 A2997 RMK AO2 SLP132 T03060217
KAFW 201553Z 19009KT 10SM FEW150 BKN240 29/22 A2998 RMK AO2 SLP134 T02890217
KAFW 201453Z 14007KT 10SM FEW150 BKN240 27/22 A2996 RMK AO2 SLP131 T02720222 53015
KAFW 201353Z 18005KT 10SM SCT150 BKN250 26/22 A2995 RMK AO2 SLP126 T02610217
KAFW 201253Z 20004KT 10SM SCT150 BKN250 24/22 A2993 RMK AO2 SLP121 T02390217
KAFW 201153Z 18007KT 10SM FEW250 24/21 A2992 RMK AO2 SLP115 T02390211 10267 20239 51002
KAFW 201053Z 17006KT 10SM FEW250 24/21 A2992 RMK AO2 SLP115 T02390211
KAFW 200953Z 18006KT 10SM FEW250 24/21 A2991 RMK AO2 SLP113 T02440206
KAFW 200853Z 18004KT 10SM FEW250 26/21 A2991 RMK AO2 SLP112 T02560211 56007
KAFW 200753Z 18005KT 10SM SCT250 25/21 A2992 RMK AO2 SLP113 T02500211
KAFW 200653Z 18006KT 10SM SCT250 26/21 A2993 RMK AO2 SLP116 T02610211